Zhen Zhu Hai — VROT8 — position and weather

sailwx.info

Track history (hours):
 
Tides and Currents Weather Stations Pressure Air Temp Water Temp Dewpoint Dewpoint Depression Visibility Wind Speed Wind Dir Waves Ship Positions

Zhen Zhu Hai

Last reported at 2018-Jun-02 20:42 UTC. Time now 2018-Jun-22 07:46 UTC.
Position N 01°33' E 104°35'.
Warning: this ship's position is 19 days out of date.

Length 180 m; draft 10.4 m.

Type: Cargo ship. MMSI: 477524900.

Date/timePositionNaut miles runAvg speedWind from/ knotsBaromVisibWave heightAir tempDewpointWater temp
2018-Jun-02 20:42N 01°33' E 104°35'613.7
2018-Jun-02 20:15N 01°27' E 104°32'414.0
2018-Jun-02 19:57N 01°25' E 104°29'714.9
2018-Jun-02 19:28N 01°20' E 104°23'714.2
2018-Jun-02 18:58N 01°16' E 104°17'713.9
2018-Jun-02 18:27N 01°15' E 104°10'612.7
2018-Jun-02 17:59N 01°14' E 104°04'510.4
2018-Jun-02 17:30N 01°15' E 103°59'2 4.1
2018-Jun-02 16:59N 01°16' E 103°58'0 0.1
2018-Jun-02 16:25N 01°16' E 103°58'0 0.0
2018-Jun-02 15:43N 01°16' E 103°58'0 0.0
2018-Jun-02 15:28N 01°16' E 103°58'0 0.0
2018-Jun-02 14:58N 01°16' E 103°58'0 0.0
2018-Jun-02 14:25N 01°16' E 103°58'0 0.0
2018-Jun-02 14:00N 01°16' E 103°58'0 0.0
2018-Jun-02 13:28N 01°16' E 103°58'0 0.0
2018-Jun-02 12:43N 01°16' E 103°58'0 0.1
2018-Jun-02 12:25N 01°16' E 103°58'0 0.1
2018-Jun-02 12:00N 01°16' E 103°58'0 0.1
2018-Jun-02 11:28N 01°17' E 103°58'0 0.1
2018-Jun-02 10:46N 01°17' E 103°58'0 0.0
2018-Jun-02 10:28N 01°17' E 103°58'0 0.0
2018-Jun-02 09:37N 01°17' E 103°58'0 0.0
2018-Jun-02 09:28N 01°17' E 103°58'0 0.0
2018-Jun-02 08:57N 01°17' E 103°58'0 0.1
2018-Jun-02 08:25N 01°17' E 103°58'0 0.1
2018-Jun-02 07:58N 01°17' E 103°58'0 0.0
2018-Jun-02 07:25N 01°17' E 103°58'0 0.0
2018-Jun-02 06:57N 01°17' E 103°58'0 0.0
2018-Jun-02 06:21N 01°17' E 103°58'0 0.0
2018-Jun-02 05:57N 01°17' E 103°58'0 0.0
2018-Jun-02 05:28N 01°17' E 103°58'0 0.0
2018-Jun-02 04:55N 01°17' E 103°58'0 0.0
2018-Jun-02 04:04N 01°17' E 103°58'0 0.0
2018-Jun-02 03:54N 01°17' E 103°58'0 0.0
2018-Jun-02 03:24N 01°17' E 103°58'0 0.0
2018-Jun-02 02:58N 01°17' E 103°58'0 0.0
2018-Jun-02 02:25N 01°17' E 103°58'0 0.1
2018-Jun-02 02:00N 01°17' E 103°58'0 0.1
2018-Jun-02 01:30N 01°17' E 103°58'0 0.7
2018-Jun-02 01:00N 01°16' E 103°58'1 2.7
2018-Jun-02 00:30N 01°15' E 103°59'2 3.2
2018-Jun-02 00:00N 01°14' E 103°57'3 5.8
2018-Jun-01 23:30N 01°13' E 103°55'3 5.9
2018-Jun-01 23:00N 01°12' E 103°52'4 7.1
2018-Jun-01 22:30N 01°10' E 103°49'4 7.7
2018-Jun-01 22:00N 01°08' E 103°46'5 9.2
2018-Jun-01 21:31N 01°05' E 103°43'4 8.7
2018-Jun-01 21:00N 01°03' E 103°38'4 7.3
2018-Jun-01 20:30N 01°05' E 103°35'3 6.6
2018-Jun-01 20:00N 01°06' E 103°32'2 3.9
2018-Jun-01 19:30N 01°07' E 103°30'1 1.5
2018-Jun-01 19:00N 01°07' E 103°30'3 6.7
2018-Jun-01 18:29N 01°09' E 103°27'510.3
2018-Jun-01 18:00N 01°12' E 103°23'612.7
2018-Jun-01 17:29N 01°16' E 103°18'613.1
2018-Jun-01 17:00N 01°21' E 103°13'713.1
2018-Jun-01 16:29N 01°25' E 103°08'  
Track history (hours):
 
Tides and Currents Weather Stations Pressure Air Temp Water Temp Dewpoint Dewpoint Depression Visibility Wind Speed Wind Dir Waves Ship Positions

Zhen Zhu Hai

Last reported at 2018-Jun-02 20:42 UTC. Time now 2018-Jun-22 07:46 UTC.
Position N 01°33' E 104°35'.
Warning: this ship's position is 19 days out of date.

Length 180 m; draft 10.4 m.

Type: Cargo ship. MMSI: 477524900.

Date/timePositionNaut miles runAvg speedWind from/ knotsBaromVisibWave heightAir tempDewpointWater temp
2018-Jun-02 20:42N 01°33' E 104°35'613.7
2018-Jun-02 20:15N 01°27' E 104°32'414.0
2018-Jun-02 19:57N 01°25' E 104°29'714.9
2018-Jun-02 19:28N 01°20' E 104°23'714.2
2018-Jun-02 18:58N 01°16' E 104°17'713.9
2018-Jun-02 18:27N 01°15' E 104°10'612.7
2018-Jun-02 17:59N 01°14' E 104°04'510.4
2018-Jun-02 17:30N 01°15' E 103°59'2 4.1
2018-Jun-02 16:59N 01°16' E 103°58'0 0.1
2018-Jun-02 16:25N 01°16' E 103°58'0 0.0
2018-Jun-02 15:43N 01°16' E 103°58'0 0.0
2018-Jun-02 15:28N 01°16' E 103°58'0 0.0
2018-Jun-02 14:58N 01°16' E 103°58'0 0.0
2018-Jun-02 14:25N 01°16' E 103°58'0 0.0
2018-Jun-02 14:00N 01°16' E 103°58'0 0.0
2018-Jun-02 13:28N 01°16' E 103°58'0 0.0
2018-Jun-02 12:43N 01°16' E 103°58'0 0.1
2018-Jun-02 12:25N 01°16' E 103°58'0 0.1
2018-Jun-02 12:00N 01°16' E 103°58'0 0.1
2018-Jun-02 11:28N 01°17' E 103°58'0 0.1
2018-Jun-02 10:46N 01°17' E 103°58'0 0.0
2018-Jun-02 10:28N 01°17' E 103°58'0 0.0
2018-Jun-02 09:37N 01°17' E 103°58'0 0.0
2018-Jun-02 09:28N 01°17' E 103°58'0 0.0
2018-Jun-02 08:57N 01°17' E 103°58'0 0.1
2018-Jun-02 08:25N 01°17' E 103°58'0 0.1
2018-Jun-02 07:58N 01°17' E 103°58'0 0.0
2018-Jun-02 07:25N 01°17' E 103°58'0 0.0
2018-Jun-02 06:57N 01°17' E 103°58'0 0.0
2018-Jun-02 06:21N 01°17' E 103°58'0 0.0
2018-Jun-02 05:57N 01°17' E 103°58'0 0.0
2018-Jun-02 05:28N 01°17' E 103°58'0 0.0
2018-Jun-02 04:55N 01°17' E 103°58'0 0.0
2018-Jun-02 04:04N 01°17' E 103°58'0 0.0
2018-Jun-02 03:54N 01°17' E 103°58'0 0.0
2018-Jun-02 03:24N 01°17' E 103°58'0 0.0
2018-Jun-02 02:58N 01°17' E 103°58'0 0.0
2018-Jun-02 02:25N 01°17' E 103°58'0 0.1
2018-Jun-02 02:00N 01°17' E 103°58'0 0.1
2018-Jun-02 01:30N 01°17' E 103°58'0 0.7
2018-Jun-02 01:00N 01°16' E 103°58'1 2.7
2018-Jun-02 00:30N 01°15' E 103°59'2 3.2
2018-Jun-02 00:00N 01°14' E 103°57'3 5.8
2018-Jun-01 23:30N 01°13' E 103°55'3 5.9
2018-Jun-01 23:00N 01°12' E 103°52'4 7.1
2018-Jun-01 22:30N 01°10' E 103°49'4 7.7
2018-Jun-01 22:00N 01°08' E 103°46'5 9.2
2018-Jun-01 21:31N 01°05' E 103°43'4 8.7
2018-Jun-01 21:00N 01°03' E 103°38'4 7.3
2018-Jun-01 20:30N 01°05' E 103°35'3 6.6
2018-Jun-01 20:00N 01°06' E 103°32'2 3.9
2018-Jun-01 19:30N 01°07' E 103°30'1 1.5
2018-Jun-01 19:00N 01°07' E 103°30'3 6.7
2018-Jun-01 18:29N 01°09' E 103°27'510.3
2018-Jun-01 18:00N 01°12' E 103°23'612.7
2018-Jun-01 17:29N 01°16' E 103°18'613.1
2018-Jun-01 17:00N 01°21' E 103°13'713.1
2018-Jun-01 16:29N 01°25' E 103°08'  

Dump ship's entire track history